Time;durP1;ratioP1;P1;durP2;ratioP2;P2;SDS_P1;SDS_P2;PMS_P1;PMS_P2;Temp;Humidity;BMP_temperature;BMP_pressure;BME280_temperature;BME280_humidity;BME280_pressure;Samples;Min_cycle;Max_cycle;Signal;HPM_P1;HPM_P2
2022/06/18 00:00:56;;;;;;;4.45;2.28;;;;;;;;;;4971443;28;20090;-70
2022/06/18 00:03:25;;;;;;;4.05;2.00;;;;;;;;;;4967560;28;20054;-69
2022/06/18 00:05:53;;;;;;;5.07;2.28;;;;;;;;;;4984214;28;20050;-69
2022/06/18 00:08:21;;;;;;;5.15;2.00;;;;;;;;;;4986636;28;20136;-70
2022/06/18 00:10:47;;;;;;;5.25;1.95;;;;;;;;;;4988915;28;20056;-71
2022/06/18 00:13:41;;;;;;;2.90;1.60;;;;;;;;;;4990440;28;20046;-71
2022/06/18 00:16:10;;;;;;;5.68;1.83;;;;;;;;;;4970753;28;20054;-71
2022/06/18 00:18:38;;;;;;;4.22;1.77;;;;;;;;;;4967960;28;20050;-71
2022/06/18 00:21:05;;;;;;;3.25;1.52;;;;;;;;;;4988039;28;20050;-72
2022/06/18 00:23:32;;;;;;;3.45;1.83;;;;;;;;;;4980893;28;20053;-70
2022/06/18 00:25:59;;;;;;;5.20;1.85;;;;;;;;;;4969051;28;20149;-69
2022/06/18 00:28:26;;;;;;;6.82;1.63;;;;;;;;;;4970367;28;20423;-69
2022/06/18 00:30:54;;;;;;;5.63;2.00;;;;;;;;;;4967409;28;20146;-70
2022/06/18 00:33:21;;;;;;;4.70;2.17;;;;;;;;;;4970856;28;20054;-70
2022/06/18 00:35:50;;;;;;;5.35;2.47;;;;;;;;;;4980062;28;20058;-70
2022/06/18 00:38:20;;;;;;;4.15;2.22;;;;;;;;;;4989262;28;20050;-70
2022/06/18 00:40:47;;;;;;;8.35;2.95;;;;;;;;;;4973810;28;20058;-70
2022/06/18 00:43:16;;;;;;;4.60;2.10;;;;;;;;;;4996466;28;20149;-70
2022/06/18 00:45:42;;;;;;;3.15;1.77;;;;;;;;;;4981982;28;20054;-69
2022/06/18 00:48:12;;;;;;;5.22;1.55;;;;;;;;;;4986749;28;20057;-71
2022/06/18 00:50:41;;;;;;;3.72;1.98;;;;;;;;;;4984479;28;20137;-70
2022/06/18 00:53:11;;;;;;;3.85;2.10;;;;;;;;;;4989705;28;20161;-71
2022/06/18 00:55:40;;;;;;;3.40;1.75;;;;;;;;;;4985015;28;20061;-70
2022/06/18 00:58:12;;;;;;;3.50;1.80;;;;;;;;;;4988307;28;20053;-71
2022/06/18 01:00:40;;;;;;;3.28;2.00;;;;;;;;;;4985496;28;20064;-69
2022/06/18 01:03:21;;;;;;;3.83;1.90;;;;;;;;;;4989592;28;20036;-69
2022/06/18 01:05:48;;;;;;;3.03;1.80;;;;;;;;;;4982478;28;20061;-70
2022/06/18 01:08:17;;;;;;;6.43;2.30;;;;;;;;;;4989241;28;20065;-70
2022/06/18 01:10:48;;;;;;;4.00;2.10;;;;;;;;;;4982764;28;20093;-72
2022/06/18 01:13:16;;;;;;;2.88;1.80;;;;;;;;;;4992624;28;20063;-70
2022/06/18 01:15:43;;;;;;;3.78;1.90;;;;;;;;;;4992225;28;20057;-71
2022/06/18 01:18:10;;;;;;;5.55;2.10;;;;;;;;;;4971894;28;20085;-71
2022/06/18 01:20:39;;;;;;;2.90;1.90;;;;;;;;;;4972962;28;20061;-69
2022/06/18 01:23:08;;;;;;;4.20;1.65;;;;;;;;;;4986441;28;20057;-69
2022/06/18 01:25:36;;;;;;;3.00;1.63;;;;;;;;;;4992574;28;20065;-70
2022/06/18 01:28:03;;;;;;;5.93;2.00;;;;;;;;;;4973626;28;20081;-70
2022/06/18 01:30:33;;;;;;;4.60;1.90;;;;;;;;;;4973363;28;20141;-69
2022/06/18 01:33:00;;;;;;;3.25;1.73;;;;;;;;;;4982638;28;20054;-70
2022/06/18 01:35:27;;;;;;;3.87;1.87;;;;;;;;;;4992907;28;20053;-70
2022/06/18 01:37:54;;;;;;;3.63;1.98;;;;;;;;;;4986342;28;20054;-70
2022/06/18 01:40:25;;;;;;;3.15;1.85;;;;;;;;;;4991074;28;20137;-70
2022/06/18 01:42:56;;;;;;;4.05;1.80;;;;;;;;;;4982165;28;20074;-70
2022/06/18 01:45:25;;;;;;;3.22;1.75;;;;;;;;;;4975220;28;20046;-70
2022/06/18 01:47:51;;;;;;;;;;;;;;;;;;4971801;28;20137;-71
2022/06/18 01:50:21;;;;;;;4.50;1.70;;;;;;;;;;4973141;28;19921;-70
2022/06/18 01:52:49;;;;;;;5.88;2.65;;;;;;;;;;4974539;28;20056;-71
2022/06/18 01:55:17;;;;;;;4.00;2.03;;;;;;;;;;4992036;28;20141;-71
2022/06/18 01:57:46;;;;;;;3.05;1.63;;;;;;;;;;4985478;28;20050;-72
2022/06/18 02:00:17;;;;;;;3.53;1.80;;;;;;;;;;4989098;28;20158;-71
2022/06/18 02:02:44;;;;;;;6.57;2.78;;;;;;;;;;4986191;28;20050;-71
2022/06/18 02:05:11;;;;;;;5.50;2.90;;;;;;;;;;4988109;28;20081;-71
2022/06/18 02:07:38;;;;;;;8.48;2.80;;;;;;;;;;4988445;28;20050;-70
2022/06/18 02:10:07;;;;;;;5.97;2.33;;;;;;;;;;4986581;28;20057;-71
2022/06/18 02:12:36;;;;;;;6.82;3.20;;;;;;;;;;4991914;28;20053;-70
2022/06/18 02:15:04;;;;;;;4.43;2.33;;;;;;;;;;4986927;28;20088;-71
2022/06/18 02:17:32;;;;;;;4.38;2.03;;;;;;;;;;4991757;28;20056;-71
2022/06/18 02:20:00;;;;;;;7.05;3.03;;;;;;;;;;4986468;28;20058;-70
2022/06/18 02:22:29;;;;;;;6.95;2.50;;;;;;;;;;4991766;28;20058;-71
2022/06/18 02:24:55;;;;;;;8.93;2.83;;;;;;;;;;4987364;28;20053;-70
2022/06/18 02:27:23;;;;;;;5.20;2.35;;;;;;;;;;4991099;28;20057;-70
2022/06/18 02:29:50;;;;;;;5.43;2.45;;;;;;;;;;4987355;28;20049;-71
2022/06/18 02:32:20;;;;;;;4.78;2.28;;;;;;;;;;4990615;28;20060;-71
2022/06/18 02:34:48;;;;;;;6.50;1.83;;;;;;;;;;4985336;28;20050;-71
2022/06/18 02:37:19;;;;;;;4.68;2.28;;;;;;;;;;4988878;28;20046;-70
2022/06/18 02:39:53;;;;;;;5.78;1.92;;;;;;;;;;4987837;28;20045;-70
2022/06/18 02:42:20;;;;;;;6.70;3.53;;;;;;;;;;4991586;28;20050;-71
2022/06/18 02:44:48;;;;;;;9.55;3.80;;;;;;;;;;4986915;28;20058;-71
2022/06/18 02:47:16;;;;;;;6.82;2.53;;;;;;;;;;4991354;28;20081;-71
2022/06/18 02:49:47;;;;;;;5.22;2.40;;;;;;;;;;4985783;28;20068;-72
2022/06/18 02:52:15;;;;;;;4.95;2.72;;;;;;;;;;4987711;28;20141;-71
2022/06/18 02:54:42;;;;;;;3.53;1.92;;;;;;;;;;4987658;28;20066;-72
2022/06/18 02:57:13;;;;;;;6.50;2.97;;;;;;;;;;4987380;28;20054;-72
2022/06/18 02:59:40;;;;;;;3.05;1.80;;;;;;;;;;4990009;28;20056;-72
2022/06/18 03:02:07;;;;;;;6.80;2.67;;;;;;;;;;4987044;28;20077;-72
2022/06/18 03:04:34;;;;;;;6.68;3.22;;;;;;;;;;4981136;28;20069;-71
2022/06/18 03:07:00;;;;;;;10.27;2.90;;;;;;;;;;4994102;28;20110;-70
2022/06/18 03:09:28;;;;;;;6.28;3.55;;;;;;;;;;5007938;28;20113;-71
2022/06/18 03:12:06;;;;;;;5.72;2.95;;;;;;;;;;4994003;28;20050;-71
2022/06/18 03:14:33;;;;;;;9.67;3.20;;;;;;;;;;4991345;28;20034;-70
2022/06/18 03:17:00;;;;;;;9.75;2.90;;;;;;;;;;4988208;28;20057;-70
2022/06/18 03:19:31;;;;;;;4.95;2.40;;;;;;;;;;4991465;28;20050;-71
2022/06/18 03:22:01;;;;;;;3.20;1.92;;;;;;;;;;4987133;28;20058;-71
2022/06/18 03:24:29;;;;;;;7.15;2.70;;;;;;;;;;4990708;28;20078;-71
2022/06/18 03:26:55;;;;;;;7.68;2.08;;;;;;;;;;4990253;28;20050;-71
2022/06/18 03:29:22;;;;;;;4.28;1.92;;;;;;;;;;5007177;28;20058;-70
2022/06/18 03:31:49;;;;;;;5.65;2.55;;;;;;;;;;4999482;28;20072;-71
2022/06/18 03:34:16;;;;;;;8.65;3.30;;;;;;;;;;4990361;28;20090;-71
2022/06/18 03:36:42;;;;;;;6.97;3.10;;;;;;;;;;4986339;28;20057;-72
2022/06/18 03:39:11;;;;;;;4.32;2.53;;;;;;;;;;4988904;28;20058;-71
2022/06/18 03:41:40;;;;;;;4.72;2.00;;;;;;;;;;4986083;28;20065;-71
2022/06/18 03:44:06;;;;;;;4.88;2.10;;;;;;;;;;4988523;28;20050;-70
2022/06/18 03:46:35;;;;;;;9.00;3.50;;;;;;;;;;4990292;28;20053;-71
2022/06/18 03:49:03;;;;;;;5.18;2.50;;;;;;;;;;4985946;28;20049;-70
2022/06/18 03:51:31;;;;;;;5.43;2.60;;;;;;;;;;4990148;28;20054;-71
2022/06/18 03:53:59;;;;;;;12.40;4.43;;;;;;;;;;4971303;28;20301;-72
2022/06/18 03:56:26;;;;;;;10.35;3.78;;;;;;;;;;4971388;28;20053;-71
2022/06/18 03:58:55;;;;;;;6.10;3.00;;;;;;;;;;4968333;28;20077;-71
2022/06/18 04:01:22;;;;;;;8.48;3.40;;;;;;;;;;4970850;28;20085;-71
2022/06/18 04:03:49;;;;;;;6.63;3.53;;;;;;;;;;4976189;28;20278;-69
2022/06/18 04:06:16;;;;;;;13.43;4.40;;;;;;;;;;4990259;28;20054;-71
2022/06/18 04:08:42;;;;;;;5.57;2.28;;;;;;;;;;4984882;28;20049;-71
2022/06/18 04:11:09;;;;;;;8.23;4.28;;;;;;;;;;4990475;28;20085;-70
2022/06/18 04:13:36;;;;;;;14.32;4.13;;;;;;;;;;4980881;28;20050;-71
2022/06/18 04:16:04;;;;;;;7.25;3.10;;;;;;;;;;4970168;28;20054;-70
2022/06/18 04:18:32;;;;;;;11.20;3.50;;;;;;;;;;4967377;28;20090;-69
2022/06/18 04:21:00;;;;;;;8.13;2.88;;;;;;;;;;4987117;28;20058;-70
2022/06/18 04:23:26;;;;;;;9.68;3.67;;;;;;;;;;4985291;28;20061;-70
2022/06/18 04:25:53;;;;;;;12.07;3.95;;;;;;;;;;4986871;28;20085;-69
2022/06/18 04:28:20;;;;;;;4.88;2.40;;;;;;;;;;4986726;28;20061;-69
2022/06/18 04:30:47;;;;;;;4.78;2.58;;;;;;;;;;4982036;28;20058;-70
2022/06/18 04:33:15;;;;;;;6.80;3.30;;;;;;;;;;4987304;28;20125;-69
2022/06/18 04:35:42;;;;;;;10.60;4.30;;;;;;;;;;4982489;28;20054;-69
2022/06/18 04:38:11;;;;;;;11.77;4.03;;;;;;;;;;4987270;28;20058;-70
2022/06/18 04:40:37;;;;;;;10.80;4.50;;;;;;;;;;4986410;28;20061;-70
2022/06/18 04:43:05;;;;;;;7.80;2.95;;;;;;;;;;4990129;28;20081;-70
2022/06/18 04:45:32;;;;;;;13.53;4.30;;;;;;;;;;4989734;28;20045;-69
2022/06/18 04:47:59;;;;;;;10.38;4.68;;;;;;;;;;4993952;28;20085;-71
2022/06/18 04:50:29;;;;;;;19.25;5.20;;;;;;;;;;4989605;28;20068;-69
2022/06/18 04:52:55;;;;;;;7.78;3.25;;;;;;;;;;4994850;28;20058;-70
2022/06/18 04:55:22;;;;;;;12.10;5.60;;;;;;;;;;4987137;28;20133;-70
2022/06/18 04:57:49;;;;;;;10.55;3.65;;;;;;;;;;4991690;28;20050;-69
2022/06/18 05:00:16;;;;;;;5.90;2.78;;;;;;;;;;4984822;28;20066;-70
2022/06/18 05:02:43;;;;;;;13.18;5.53;;;;;;;;;;4973475;28;20065;-70
2022/06/18 05:05:12;;;;;;;15.07;5.60;;;;;;;;;;4970808;28;20082;-69
2022/06/18 05:07:40;;;;;;;22.60;6.80;;;;;;;;;;4993262;28;20062;-71
2022/06/18 05:10:07;;;;;;;17.35;5.60;;;;;;;;;;4990334;28;20053;-71
2022/06/18 05:12:34;;;;;;;18.55;5.30;;;;;;;;;;4993986;28;20057;-70
2022/06/18 05:15:00;;;;;;;12.07;5.30;;;;;;;;;;4991150;28;20050;-71
2022/06/18 05:17:28;;;;;;;9.40;4.85;;;;;;;;;;4987053;28;20167;-71
2022/06/18 05:19:55;;;;;;;14.45;5.50;;;;;;;;;;4990024;28;20058;-70
2022/06/18 05:22:22;;;;;;;7.53;3.78;;;;;;;;;;4986129;28;20109;-71
2022/06/18 05:24:50;;;;;;;15.23;5.18;;;;;;;;;;4991451;28;20058;-71
2022/06/18 05:27:20;;;;;;;14.65;4.97;;;;;;;;;;4985963;28;20375;-72
2022/06/18 05:29:47;;;;;;;12.40;4.97;;;;;;;;;;4990321;28;20058;-71
2022/06/18 05:32:13;;;;;;;7.85;3.55;;;;;;;;;;4986842;28;20061;-70
2022/06/18 05:34:40;;;;;;;5.93;2.65;;;;;;;;;;4990879;28;20057;-71
2022/06/18 05:37:09;;;;;;;7.40;3.35;;;;;;;;;;4984902;28;20060;-71
2022/06/18 05:39:36;;;;;;;10.57;3.53;;;;;;;;;;4991393;28;20092;-71
2022/06/18 05:42:04;;;;;;;11.90;3.35;;;;;;;;;;4984479;28;20112;-62
2022/06/18 05:44:31;;;;;;;;;;;;;;;;;;4991264;28;20148;-70
2022/06/18 05:46:57;;;;;;;17.85;4.97;;;;;;;;;;4975248;28;19933;-68
2022/06/18 05:49:24;;;;;;;8.63;4.35;;;;;;;;;;4990139;28;20052;-69
2022/06/18 05:51:51;;;;;;;10.98;4.70;;;;;;;;;;4985676;28;20104;-69
2022/06/18 05:54:17;;;;;;;8.30;3.20;;;;;;;;;;5004985;28;20054;-69
2022/06/18 05:56:44;;;;;;;8.18;3.28;;;;;;;;;;4990245;28;20053;-70
2022/06/18 05:59:12;;;;;;;15.30;4.15;;;;;;;;;;4985816;28;20049;-70
2022/06/18 06:01:39;;;;;;;13.55;4.70;;;;;;;;;;4989259;28;20062;-69
2022/06/18 06:04:06;;;;;;;13.20;4.88;;;;;;;;;;4986499;28;20058;-70
2022/06/18 06:06:33;;;;;;;7.93;3.13;;;;;;;;;;4989865;28;20057;-70
2022/06/18 06:08:59;;;;;;;9.77;3.65;;;;;;;;;;4984475;28;20062;-70
2022/06/18 06:11:29;;;;;;;17.80;4.57;;;;;;;;;;4990871;28;20054;-70
2022/06/18 06:13:55;;;;;;;8.75;4.30;;;;;;;;;;4985132;28;20058;-70
2022/06/18 06:16:24;;;;;;;14.73;4.63;;;;;;;;;;4988898;28;20069;-69
2022/06/18 06:18:50;;;;;;;7.47;3.08;;;;;;;;;;4986569;28;20060;-70
2022/06/18 06:21:20;;;;;;;13.52;4.20;;;;;;;;;;4989554;28;20050;-69
2022/06/18 06:23:47;;;;;;;10.65;4.70;;;;;;;;;;4985366;28;20057;-69
2022/06/18 06:26:17;;;;;;;12.18;4.30;;;;;;;;;;4989847;28;20050;-70
2022/06/18 06:28:44;;;;;;;13.43;4.50;;;;;;;;;;4986194;28;20141;-70
2022/06/18 06:31:15;;;;;;;14.95;5.28;;;;;;;;;;4990346;28;20140;-69
2022/06/18 06:33:43;;;;;;;14.73;6.13;;;;;;;;;;4986609;28;20136;-70
2022/06/18 06:36:11;;;;;;;21.38;5.18;;;;;;;;;;4987924;28;20050;-70
2022/06/18 06:38:38;;;;;;;12.75;4.93;;;;;;;;;;4983342;28;20068;-69
2022/06/18 06:41:05;;;;;;;13.05;5.68;;;;;;;;;;4987774;28;20061;-69
2022/06/18 06:43:32;;;;;;;13.88;5.10;;;;;;;;;;4988385;28;20065;-70
2022/06/18 06:45:59;;;;;;;11.40;3.95;;;;;;;;;;4985029;28;20081;-70
2022/06/18 06:48:26;;;;;;;17.52;5.70;;;;;;;;;;4989495;28;20245;-70
2022/06/18 06:50:54;;;;;;;9.32;3.28;;;;;;;;;;4985133;28;20054;-70
2022/06/18 06:53:21;;;;;;;13.40;4.43;;;;;;;;;;4990142;28;20042;-70
2022/06/18 06:58:31;;;;;;;9.55;4.47;;;;;;;;;;4987838;28;20065;-69
2022/06/18 07:00:59;;;;;;;9.43;4.40;;;;;;;;;;4985931;28;20068;-70
2022/06/18 07:03:27;;;;;;;10.70;3.20;;;;;;;;;;4989795;28;20116;-70
2022/06/18 07:05:57;;;;;;;14.52;4.70;;;;;;;;;;4985768;28;20065;-70
2022/06/18 07:08:24;;;;;;;9.13;3.67;;;;;;;;;;4987330;28;20057;-69
2022/06/18 07:10:51;;;;;;;14.00;5.13;;;;;;;;;;4986003;28;20054;-70
2022/06/18 07:13:18;;;;;;;14.07;5.28;;;;;;;;;;4989034;28;20054;-69
2022/06/18 07:15:45;;;;;;;9.65;5.20;;;;;;;;;;4985353;28;20063;-70
2022/06/18 07:18:13;;;;;;;14.30;4.70;;;;;;;;;;4988099;28;20054;-70
2022/06/18 07:20:40;;;;;;;15.40;5.10;;;;;;;;;;4985108;28;20054;-70
2022/06/18 07:23:08;;;;;;;16.77;5.70;;;;;;;;;;4986330;28;20058;-70
2022/06/18 07:25:35;;;;;;;;;;;;;;;;;;4985724;28;20054;-69
2022/06/18 07:28:01;;;;;;;15.10;4.95;;;;;;;;;;4989775;28;19925;-69
2022/06/18 07:30:29;;;;;;;16.20;5.38;;;;;;;;;;4989441;28;20257;-69
2022/06/18 07:32:55;;;;;;;10.05;4.40;;;;;;;;;;4983099;28;20061;-70
2022/06/18 07:35:23;;;;;;;15.10;5.32;;;;;;;;;;4987799;28;20062;-70
2022/06/18 07:37:50;;;;;;;18.95;5.28;;;;;;;;;;4984651;28;20137;-70
2022/06/18 07:40:18;;;;;;;21.88;6.88;;;;;;;;;;4990682;28;20049;-63
2022/06/18 07:42:46;;;;;;;18.95;6.20;;;;;;;;;;4986190;28;20061;-66
2022/06/18 07:45:17;;;;;;;12.32;4.53;;;;;;;;;;4991372;28;20049;-66
2022/06/18 07:47:45;;;;;;;18.45;6.05;;;;;;;;;;4986774;28;20050;-66
2022/06/18 07:50:12;;;;;;;10.50;4.75;;;;;;;;;;4991853;28;20137;-66
2022/06/18 07:52:38;;;;;;;15.75;6.22;;;;;;;;;;4989226;28;20053;-66
2022/06/18 07:55:06;;;;;;;14.93;6.18;;;;;;;;;;4993059;28;20054;-66
2022/06/18 07:57:34;;;;;;;21.13;5.85;;;;;;;;;;4989786;28;20053;-66
2022/06/18 08:00:04;;;;;;;12.77;5.32;;;;;;;;;;4993183;28;20069;-66
2022/06/18 08:02:31;;;;;;;16.65;5.05;;;;;;;;;;4988235;28;20046;-66
2022/06/18 08:04:57;;;;;;;10.68;3.50;;;;;;;;;;4985682;28;20054;-66
2022/06/18 08:07:24;;;;;;;14.18;5.05;;;;;;;;;;5004247;28;20149;-66
2022/06/18 08:09:53;;;;;;;23.83;6.10;;;;;;;;;;4986236;28;20112;-66
2022/06/18 08:12:19;;;;;;;12.02;3.70;;;;;;;;;;5005225;28;20081;-66
2022/06/18 08:14:48;;;;;;;16.55;5.72;;;;;;;;;;4990199;28;20125;-66
2022/06/18 08:17:14;;;;;;;12.82;5.70;;;;;;;;;;4992255;28;20058;-66
2022/06/18 08:19:51;;;;;;;14.85;4.75;;;;;;;;;;4990657;28;20058;-66
2022/06/18 08:22:17;;;;;;;11.82;4.70;;;;;;;;;;4992095;28;20085;-66
2022/06/18 08:24:45;;;;;;;11.68;4.03;;;;;;;;;;4989952;28;20064;-66
2022/06/18 08:27:11;;;;;;;8.88;3.72;;;;;;;;;;4993282;28;20058;-66
2022/06/18 08:29:38;;;;;;;10.93;4.85;;;;;;;;;;4989964;28;20077;-66
2022/06/18 08:32:07;;;;;;;8.20;3.72;;;;;;;;;;4994294;28;20080;-66
2022/06/18 08:34:34;;;;;;;8.93;2.92;;;;;;;;;;4989445;28;20054;-66
2022/06/18 08:37:01;;;;;;;18.20;4.22;;;;;;;;;;4995624;28;20046;-66
2022/06/18 08:39:28;;;;;;;7.80;3.20;;;;;;;;;;4991102;28;20045;-66
2022/06/18 08:42:01;;;;;;;16.35;5.50;;;;;;;;;;4993113;28;20050;-66
2022/06/18 08:44:36;;;;;;;13.05;4.40;;;;;;;;;;4991787;28;20050;-67
2022/06/18 08:47:09;;;;;;;16.23;4.93;;;;;;;;;;4993920;28;20072;-66
2022/06/18 08:49:52;;;;;;;15.13;4.65;;;;;;;;;;4990692;28;20049;-66
2022/06/18 08:52:25;;;;;;;7.80;3.35;;;;;;;;;;4993171;28;20055;-65
2022/06/18 08:54:56;;;;;;;8.70;3.15;;;;;;;;;;4992109;28;20046;-66
2022/06/18 08:57:26;;;;;;;8.10;3.15;;;;;;;;;;4995713;28;20073;-66
2022/06/18 09:00:02;;;;;;;12.48;5.45;;;;;;;;;;4992239;28;20073;-66
2022/06/18 09:02:32;;;;;;;10.77;5.30;;;;;;;;;;4992849;28;20082;-66
2022/06/18 09:05:06;;;;;;;12.73;5.45;;;;;;;;;;4992781;28;20050;-66
2022/06/18 09:07:41;;;;;;;12.82;6.25;;;;;;;;;;4996325;28;20057;-66
2022/06/18 09:10:13;;;;;;;20.83;6.55;;;;;;;;;;4987613;28;20056;-66
2022/06/18 09:12:42;;;;;;;14.93;4.50;;;;;;;;;;4976334;28;20054;-66
2022/06/18 09:15:11;;;;;;;14.35;6.28;;;;;;;;;;4981891;28;20046;-66
2022/06/18 09:17:39;;;;;;;14.35;6.25;;;;;;;;;;4996321;28;20058;-66
2022/06/18 09:20:11;;;;;;;8.20;3.42;;;;;;;;;;4991037;28;20049;-66
2022/06/18 09:22:41;;;;;;;17.05;5.32;;;;;;;;;;4991779;28;20152;-66
2022/06/18 09:25:09;;;;;;;18.40;5.20;;;;;;;;;;4991191;28;20120;-66
2022/06/18 09:27:39;;;;;;;18.45;4.50;;;;;;;;;;4976294;28;20073;-66
2022/06/18 09:30:08;;;;;;;7.43;3.05;;;;;;;;;;4975084;28;20046;-66
2022/06/18 09:32:37;;;;;;;9.70;4.28;;;;;;;;;;4991986;28;20069;-66
2022/06/18 09:35:06;;;;;;;12.70;5.53;;;;;;;;;;4995814;28;20116;-66
2022/06/18 09:37:32;;;;;;;;;;;;;;;;;;4989596;28;20053;-66
2022/06/18 09:40:09;;;;;;;12.50;4.22;;;;;;;;;;4992360;28;19928;-65
2022/06/18 09:42:40;;;;;;;19.65;5.18;;;;;;;;;;4987266;28;20054;-65
2022/06/18 09:45:09;;;;;;;6.55;2.80;;;;;;;;;;4991972;28;20152;-65
2022/06/18 09:47:37;;;;;;;12.68;3.50;;;;;;;;;;4992318;28;20042;-66
2022/06/18 09:50:13;;;;;;;5.57;2.85;;;;;;;;;;4996302;28;20049;-66
2022/06/18 09:52:40;;;;;;;12.95;3.58;;;;;;;;;;4990573;28;20121;-65
2022/06/18 09:55:08;;;;;;;10.75;3.15;;;;;;;;;;4995070;28;20084;-66
2022/06/18 09:57:39;;;;;;;14.27;3.65;;;;;;;;;;4981379;28;20081;-65
2022/06/18 10:00:18;;;;;;;23.00;5.35;;;;;;;;;;4975305;28;20057;-65
2022/06/18 10:02:46;;;;;;;10.82;4.55;;;;;;;;;;4979493;28;20058;-65
2022/06/18 10:08:00;;;;;;;17.35;4.28;;;;;;;;;;4987759;28;20058;-65
2022/06/18 10:10:31;;;;;;;6.95;3.20;;;;;;;;;;4991341;28;20055;-65
2022/06/18 10:13:00;;;;;;;10.27;3.45;;;;;;;;;;4982831;28;20054;-65
2022/06/18 10:15:27;;;;;;;5.70;2.83;;;;;;;;;;4992094;28;20050;-66
2022/06/18 10:17:57;;;;;;;8.55;3.33;;;;;;;;;;4987980;28;20129;-66
2022/06/18 10:20:35;;;;;;;14.70;3.83;;;;;;;;;;4991643;28;20142;-65
2022/06/18 10:23:05;;;;;;;6.05;2.65;;;;;;;;;;4985654;28;20109;-65
2022/06/18 10:25:36;;;;;;;14.80;3.78;;;;;;;;;;4975235;28;20109;-65
2022/06/18 10:28:09;;;;;;;15.15;4.90;;;;;;;;;;4972213;28;20058;-65
2022/06/18 10:30:41;;;;;;;12.65;4.05;;;;;;;;;;4991101;28;20061;-65
2022/06/18 10:33:14;;;;;;;13.00;4.45;;;;;;;;;;4987751;28;20132;-65
2022/06/18 10:35:46;;;;;;;12.60;3.92;;;;;;;;;;4992890;28;20056;-65
2022/06/18 10:38:18;;;;;;;15.68;5.50;;;;;;;;;;4987943;28;20062;-65
2022/06/18 10:40:59;;;;;;;15.50;4.72;;;;;;;;;;4991307;28;20093;-65
2022/06/18 10:43:37;;;;;;;8.38;2.97;;;;;;;;;;4987543;28;20073;-65
2022/06/18 10:46:07;;;;;;;8.23;3.17;;;;;;;;;;4974947;28;20054;-65
2022/06/18 10:48:35;;;;;;;17.88;4.50;;;;;;;;;;4972348;28;20050;-66
2022/06/18 10:51:02;;;;;;;12.73;4.53;;;;;;;;;;4990999;28;20046;-66
2022/06/18 10:53:30;;;;;;;10.07;3.13;;;;;;;;;;4990403;28;20050;-66
2022/06/18 10:55:58;;;;;;;7.85;3.50;;;;;;;;;;4992108;28;20054;-66
2022/06/18 10:58:24;;;;;;;15.13;4.57;;;;;;;;;;4993305;28;20071;-65
2022/06/18 11:01:10;;;;;;;18.10;6.13;;;;;;;;;;4990503;28;20050;-64
2022/06/18 11:03:37;;;;;;;14.88;4.95;;;;;;;;;;4964368;28;20041;-66
2022/06/18 11:06:09;;;;;;;13.95;4.18;;;;;;;;;;4983392;28;20054;-66
2022/06/18 11:08:36;;;;;;;15.02;5.25;;;;;;;;;;5010319;28;20061;-66
2022/06/18 11:11:07;;;;;;;10.65;3.97;;;;;;;;;;5006062;28;20058;-66
2022/06/18 11:13:36;;;;;;;14.75;3.88;;;;;;;;;;4992733;28;20058;-66
2022/06/18 11:16:11;;;;;;;10.10;4.35;;;;;;;;;;4989513;28;20065;-66
2022/06/18 11:18:44;;;;;;;11.75;3.60;;;;;;;;;;4992502;28;20072;-66
2022/06/18 11:21:18;;;;;;;9.65;3.28;;;;;;;;;;4989816;28;20050;-67
2022/06/18 11:23:49;;;;;;;8.40;3.15;;;;;;;;;;4993286;28;20053;-67
2022/06/18 11:26:22;;;;;;;12.32;3.83;;;;;;;;;;5000924;28;20050;-66
2022/06/18 11:28:50;;;;;;;8.00;3.20;;;;;;;;;;4992589;28;20053;-67
2022/06/18 11:31:21;;;;;;;21.58;4.78;;;;;;;;;;4989664;28;20092;-66
2022/06/18 11:33:55;;;;;;;14.10;3.80;;;;;;;;;;4990655;28;20096;-66
2022/06/18 11:36:32;;;;;;;10.60;4.05;;;;;;;;;;4988968;28;20038;-66
2022/06/18 11:39:00;;;;;;;15.52;4.85;;;;;;;;;;4992832;28;20054;-66
2022/06/18 11:41:42;;;;;;;12.30;3.78;;;;;;;;;;4990112;28;20053;-66
2022/06/18 11:44:11;;;;;;;9.77;3.20;;;;;;;;;;4993617;28;20049;-66
2022/06/18 11:46:42;;;;;;;9.88;3.78;;;;;;;;;;4990029;28;20050;-66
2022/06/18 11:49:14;;;;;;;13.68;4.00;;;;;;;;;;4993255;28;20149;-66
2022/06/18 11:51:44;;;;;;;10.25;3.20;;;;;;;;;;4989224;28;20065;-66
2022/06/18 11:54:16;;;;;;;10.43;3.20;;;;;;;;;;4988384;28;20069;-66
2022/06/18 11:56:49;;;;;;;9.73;3.60;;;;;;;;;;4981540;28;20065;-66
2022/06/18 11:59:18;;;;;;;10.60;3.03;;;;;;;;;;4984582;28;20045;-66
2022/06/18 12:01:49;;;;;;;8.98;3.10;;;;;;;;;;4980375;28;20046;-65
2022/06/18 12:04:20;;;;;;;7.03;2.88;;;;;;;;;;4987320;28;20049;-64
2022/06/18 12:06:52;;;;;;;12.10;4.00;;;;;;;;;;4977615;28;20062;-65
2022/06/18 12:09:19;;;;;;;9.35;2.92;;;;;;;;;;4982837;28;20061;-65
2022/06/18 12:11:56;;;;;;;9.23;3.30;;;;;;;;;;4978841;28;20049;-65
2022/06/18 12:14:29;;;;;;;11.88;3.88;;;;;;;;;;4985030;28;20137;-65
2022/06/18 12:16:57;;;;;;;10.88;4.07;;;;;;;;;;4980353;28;20081;-65
2022/06/18 12:19:28;;;;;;;7.70;2.97;;;;;;;;;;4983101;28;20054;-65
2022/06/18 12:21:58;;;;;;;11.38;3.05;;;;;;;;;;4979215;28;20065;-65
2022/06/18 12:24:28;;;;;;;9.45;2.83;;;;;;;;;;4983343;28;20050;-65
2022/06/18 12:26:59;;;;;;;7.78;2.58;;;;;;;;;;4982748;28;20051;-65
2022/06/18 12:29:40;;;;;;;9.85;3.10;;;;;;;;;;4981449;28;20049;-65
2022/06/18 12:32:12;;;;;;;10.63;3.22;;;;;;;;;;4985320;28;20054;-65
2022/06/18 12:34:45;;;;;;;10.98;3.28;;;;;;;;;;4977058;28;20061;-65
2022/06/18 12:37:17;;;;;;;7.70;2.92;;;;;;;;;;4980980;28;20056;-65
2022/06/18 12:39:51;;;;;;;8.90;2.97;;;;;;;;;;4982230;28;20058;-65
2022/06/18 12:42:21;;;;;;;12.88;2.63;;;;;;;;;;4983748;28;20120;-65
2022/06/18 12:44:51;;;;;;;9.45;3.00;;;;;;;;;;4979205;28;20093;-65
2022/06/18 12:47:21;;;;;;;7.20;2.72;;;;;;;;;;4983257;28;20050;-65
2022/06/18 12:50:01;;;;;;;8.00;2.47;;;;;;;;;;4980952;28;20114;-65
2022/06/18 12:52:31;;;;;;;7.78;2.53;;;;;;;;;;4985549;28;20142;-65
2022/06/18 12:55:03;;;;;;;5.88;2.65;;;;;;;;;;4980935;28;20054;-65
2022/06/18 12:57:45;;;;;;;7.90;2.85;;;;;;;;;;5004410;28;20049;-65
2022/06/18 13:00:20;;;;;;;6.30;2.72;;;;;;;;;;4980485;28;20046;-65
2022/06/18 13:02:58;;;;;;;14.38;3.90;;;;;;;;;;4984359;28;20054;-65
2022/06/18 13:05:30;;;;;;;6.88;2.72;;;;;;;;;;4983130;28;20073;-65
2022/06/18 13:08:00;;;;;;;16.30;3.60;;;;;;;;;;4991333;28;20043;-65
2022/06/18 13:10:35;;;;;;;9.32;3.00;;;;;;;;;;4984401;28;20050;-66
2022/06/18 13:13:08;;;;;;;16.13;3.30;;;;;;;;;;4985912;28;20050;-66
2022/06/18 13:15:38;;;;;;;9.38;2.90;;;;;;;;;;4983836;28;20057;-66
2022/06/18 13:18:09;;;;;;;8.70;2.60;;;;;;;;;;4991001;28;20054;-65
2022/06/18 13:20:48;;;;;;;15.75;3.28;;;;;;;;;;4987579;28;20112;-66
2022/06/18 13:28:49;;;;;;;5.65;2.45;;;;;;;;;;4990280;28;20058;-65
2022/06/18 13:31:21;;;;;;;5.80;2.38;;;;;;;;;;4978022;28;20145;-66
2022/06/18 13:33:50;;;;;;;12.13;3.17;;;;;;;;;;4988226;28;20054;-65
2022/06/18 13:36:28;;;;;;;10.23;2.70;;;;;;;;;;4982980;28;20054;-66
2022/06/18 13:39:01;;;;;;;8.10;3.13;;;;;;;;;;4989885;28;20046;-65
2022/06/18 13:41:33;;;;;;;7.10;2.45;;;;;;;;;;4986109;28;20053;-65
2022/06/18 13:44:03;;;;;;;9.07;2.85;;;;;;;;;;4990579;28;20141;-65
2022/06/18 13:46:34;;;;;;;8.10;2.58;;;;;;;;;;4981066;28;20069;-65
2022/06/18 13:49:05;;;;;;;7.25;2.67;;;;;;;;;;5006943;28;20058;-65
2022/06/18 13:51:37;;;;;;;5.70;2.30;;;;;;;;;;4981592;28;20129;-65
2022/06/18 13:54:08;;;;;;;9.82;3.05;;;;;;;;;;4987737;28;20062;-65
2022/06/18 13:56:35;;;;;;;10.70;2.80;;;;;;;;;;4982254;28;20055;-65
2022/06/18 13:59:03;;;;;;;8.95;2.53;;;;;;;;;;4987158;28;20048;-65
2022/06/18 14:01:45;;;;;;;10.75;3.00;;;;;;;;;;4985698;28;20073;-65
2022/06/18 14:04:18;;;;;;;6.38;2.20;;;;;;;;;;4981513;28;20046;-66
2022/06/18 14:06:50;;;;;;;6.53;2.45;;;;;;;;;;4994015;28;20054;-65
2022/06/18 14:09:19;;;;;;;6.75;2.47;;;;;;;;;;4986959;28;20100;-65
2022/06/18 14:11:50;;;;;;;9.00;2.50;;;;;;;;;;4983362;28;20086;-65
2022/06/18 14:14:26;;;;;;;6.88;2.28;;;;;;;;;;4989770;28;20109;-65
2022/06/18 14:16:58;;;;;;;9.27;2.65;;;;;;;;;;4980742;28;20039;-65
2022/06/18 14:19:30;;;;;;;7.53;2.22;;;;;;;;;;4987498;28;20060;-66
2022/06/18 14:22:03;;;;;;;10.52;2.35;;;;;;;;;;4981650;28;20169;-65
2022/06/18 14:24:37;;;;;;;12.45;2.28;;;;;;;;;;4986873;28;20060;-65
2022/06/18 14:27:05;;;;;;;4.88;2.25;;;;;;;;;;4983599;28;20196;-65
2022/06/18 14:29:39;;;;;;;5.32;2.10;;;;;;;;;;4988957;28;20060;-65
2022/06/18 14:32:10;;;;;;;6.63;1.95;;;;;;;;;;4985110;28;20058;-65
2022/06/18 14:34:42;;;;;;;8.25;2.22;;;;;;;;;;4985923;28;20065;-65
2022/06/18 14:37:11;;;;;;;9.50;2.50;;;;;;;;;;4983070;28;20122;-65
2022/06/18 14:39:42;;;;;;;9.32;1.90;;;;;;;;;;4986852;28;20060;-65
2022/06/18 14:42:13;;;;;;;9.30;2.58;;;;;;;;;;4985457;28;20058;-65
2022/06/18 14:44:57;;;;;;;5.03;2.30;;;;;;;;;;4982246;28;20059;-65
2022/06/18 14:47:41;;;;;;;4.97;1.95;;;;;;;;;;4974778;28;20110;-65
2022/06/18 14:50:26;;;;;;;4.72;1.90;;;;;;;;;;4987007;28;20062;-65
2022/06/18 14:53:01;;;;;;;7.60;2.05;;;;;;;;;;4980617;28;20050;-65
2022/06/18 14:55:34;;;;;;;7.30;2.08;;;;;;;;;;4973007;28;20069;-65
2022/06/18 14:58:21;;;;;;;4.10;2.10;;;;;;;;;;4972795;28;20064;-65
2022/06/18 15:01:09;;;;;;;5.40;1.90;;;;;;;;;;4974156;28;20054;-65
2022/06/18 15:03:41;;;;;;;4.65;1.95;;;;;;;;;;4974133;28;20054;-65